Flight Track Log - Related Links

Times and Time Zones

All times are in EDT time to prevent confusion due to time zone crossing. See the N403QS flight status page for this flight to view local times or setup timezone preferences in your user account.

Time Position Orientation Groundspeed Altitude Reporting Facility
EDT Latitude Longitude Course Direction KTS MPH feet Rate Location/Type
Mon 09:01:50 AM 39.5333 -104.9167 288° West 243 280 8,800  Level Denver TRACON
Mon 09:02:50 AM 39.5667 -105.0167 293° West 292 336 11,000 2,096 Climbing Denver TRACON
Mon 09:03:13 AM 39.5822 -105.0492 302° West 304 350 11,700 3,286 Climbing Denver Center
Mon 09:04:14 AM 39.6125 -105.1658 289° West 336 387 15,600 3,689 Climbing Denver Center
Mon 09:05:15 AM 39.6339 -105.2889 283° West 349 402 19,200 3,344 Climbing Denver Center
Mon 09:06:16 AM 39.6569 -105.4256 282° West 367 422 22,400 1,884 Climbing Denver Center
Mon 09:07:00 AM 39.6556 -105.4391 288° West  Level FlightAware Approximate
Mon 09:07:16 AM 39.6800 -105.5606 283° West 384 442 23,000  Level Denver Center
Mon 09:08:17 AM 39.6953 -105.6992 278° West 388 447 23,000  Level Denver Center
Mon 09:09:18 AM 39.6781 -105.8406 261° West 365 420 23,000  Level Denver Center
Mon 09:10:19 AM 39.6644 -105.9750 263° West 373 429 23,000  Level Denver Center
Mon 09:11:20 AM 39.6492 -106.1100 262° West 374 430 23,000 -197 Level Denver Center
Mon 09:12:21 AM 39.6358 -106.2381 262° West 376 433 22,600 -639 Descending Denver Center
Mon 09:13:22 AM 39.6108 -106.3667 256° West 370 426 21,700 -1,041 Descending Denver Center
Mon 09:14:22 AM 39.5708 -106.4858 247° West 362 417 20,500 -843 Descending Denver Center
Mon 09:15:23 AM 39.5311 -106.6097 247° West 356 410 20,000 -246 Descending Denver Center
Mon 09:16:24 AM 39.4933 -106.7258 247° West 362 417 20,000 -787 Level Denver Center
Mon 09:17:25 AM 39.4506 -106.8594 248° West 360 414 18,400 -1,967 Descending Denver Center
Mon 09:18:26 AM 39.4647 -106.9739 279° West 353 406 16,000 -1,721 Descending Denver Center
Mon 09:19:27 AM 39.5022 -107.0786 295° West 327 376 14,900 -1,033 Descending Denver Center
Mon 09:20:28 AM 39.5353 -107.1828 292° West 312 359 13,900 -1,140 Descending Denver Center
Mon 09:21:28 AM 39.5342 -107.2850 269° West 279 321 12,600 -1,190 Descending Denver Center
Mon 09:22:29 AM 39.5339 -107.3700 270° West 257 296 11,500 -1,230 Descending Denver Center
Mon 09:23:30 AM 39.5317 -107.4536 268° West 214 246 10,100 -1,377 Descending Denver Center

Login

Don't have an account? Register now (free) for customized features, flight alerts, and more!